Time;durP1;ratioP1;P1;durP2;ratioP2;P2;SDS_P1;SDS_P2;PMS_P1;PMS_P2;Temp;Humidity;BMP_temperature;BMP_pressure;BME280_temperature;BME280_humidity;BME280_pressure;Samples;Min_cycle;Max_cycle;Signal;HPM_P1;HPM_P2
2022/05/19 00:00:21;;;;;;;21.30;20.40;;;19.90;36.00;;;;;;4988252;28;20464;-80
2022/05/19 00:02:47;;;;;;;21.90;21.00;;;19.90;36.30;;;;;;4988006;28;20457;-80
2022/05/19 00:05:13;;;;;;;21.87;20.87;;;19.80;36.20;;;;;;4988209;28;20430;-80
2022/05/19 00:07:39;;;;;;;21.57;20.57;;;19.70;36.30;;;;;;4973119;28;20289;-80
2022/05/19 00:10:05;;;;;;;22.37;21.17;;;19.70;37.20;;;;;;4988668;28;20190;-80
2022/05/19 00:12:31;;;;;;;21.60;20.70;;;19.70;37.30;;;;;;4987565;28;20182;-80
2022/05/19 00:14:57;;;;;;;22.63;21.63;;;19.70;37.20;;;;;;4988142;28;20426;-80
2022/05/19 00:17:24;;;;;;;22.43;21.43;;;19.60;37.80;;;;;;4988731;28;20182;-80
2022/05/19 00:19:50;;;;;;;21.70;20.80;;;19.50;37.40;;;;;;4988690;28;20794;-80
2022/05/19 00:22:16;;;;;;;22.87;21.67;;;19.50;37.50;;;;;;4987575;28;20918;-81
2022/05/19 00:24:42;;;;;;;22.30;21.30;;;19.40;38.10;;;;;;4988142;28;20894;-81
2022/05/19 00:27:07;;;;;;;21.70;20.80;;;19.40;38.70;;;;;;4988268;28;20540;-81
2022/05/19 00:29:33;;;;;;;21.53;20.63;;;19.40;39.10;;;;;;4988203;28;20178;-81
2022/05/19 00:31:59;;;;;;;22.90;21.80;;;19.40;38.60;;;;;;4988389;28;20241;-81
2022/05/19 00:34:24;;;;;;;22.33;21.33;;;19.30;39.40;;;;;;4987947;28;20229;-81
2022/05/19 00:37:01;;;;;;;23.20;22.03;;;19.30;39.10;;;;;;4988341;28;20210;-81
2022/05/19 00:39:28;;;;;;;22.30;21.30;;;19.20;39.30;;;;;;4988205;28;20186;-81
2022/05/19 00:44:40;;;;;;;24.50;23.20;;;19.20;39.60;;;;;;4973410;28;20840;-81
2022/05/19 00:47:11;;;;;;;23.73;22.57;;;19.20;39.60;;;;;;4992349;28;20524;-81
2022/05/19 00:49:40;;;;;;;23.03;22.03;;;19.10;40.50;;;;;;4992272;28;20830;-81
2022/05/19 00:52:15;;;;;;;23.27;22.27;;;19.10;40.00;;;;;;4990674;28;20425;-81
2022/05/19 00:54:50;;;;;;;23.97;22.80;;;19.10;40.40;;;;;;4975338;28;20457;-81
2022/05/19 00:57:26;;;;;;;23.13;22.03;;;19.00;40.10;;;;;;4992152;28;21000;-81
2022/05/19 00:59:53;;;;;;;23.10;22.00;;;19.00;40.70;;;;;;4992155;28;20731;-81
2022/05/19 01:02:23;;;;;;;24.00;22.43;;;19.00;40.80;;;;;;4991778;28;20445;-81
2022/05/19 01:05:04;;;;;;;22.87;21.57;;;18.90;39.30;;;;;;4974574;28;20441;-81
2022/05/19 01:07:52;;;;;;;23.40;22.30;;;18.90;40.50;;;;;;4991179;28;20461;-81
2022/05/19 01:10:18;;;;;;;22.50;21.50;;;18.90;40.60;;;;;;4990871;28;20481;-81
2022/05/19 01:12:48;;;;;;;22.97;21.97;;;18.90;40.30;;;;;;4991156;28;20477;-81
2022/05/19 01:15:17;;;;;;;23.50;22.40;;;18.80;40.60;;;;;;4990235;28;20422;-81
2022/05/19 01:17:44;;;;;;;23.10;22.07;;;18.80;41.20;;;;;;4991665;28;20823;-85
2022/05/19 01:20:19;;;;;;;23.77;22.77;;;18.90;40.80;;;;;;4975629;28;20452;-85
2022/05/19 01:22:51;;;;;;;23.43;22.10;;;18.90;40.00;;;;;;4991558;28;20468;-85
2022/05/19 01:25:29;;;;;;;22.70;21.60;;;18.90;39.50;;;;;;4975166;28;20419;-84
2022/05/19 01:27:58;;;;;;;22.37;21.47;;;18.90;39.40;;;;;;4975749;28;21039;-85
2022/05/19 01:30:24;;;;;;;23.03;22.00;;;18.80;39.30;;;;;;4992048;28;20485;-84
2022/05/19 01:32:53;;;;;;;23.57;22.37;;;18.80;39.60;;;;;;4990450;28;20418;-85
2022/05/19 01:35:20;;;;;;;23.37;22.47;;;18.80;39.20;;;;;;4990947;28;20269;-84
2022/05/19 01:37:46;;;;;;;23.27;22.10;;;18.70;39.10;;;;;;4991122;28;20433;-85
2022/05/19 01:40:37;;;;;;;22.77;21.83;;;18.80;39.20;;;;;;4993094;28;20428;-84
2022/05/19 01:43:28;;;;;;;23.00;22.10;;;18.70;39.10;;;;;;4994088;28;20628;-85
2022/05/19 01:46:21;;;;;;;22.53;21.63;;;18.70;39.10;;;;;;4990947;28;20421;-85
2022/05/19 01:48:54;;;;;;;22.87;21.87;;;18.60;38.30;;;;;;4990814;28;20426;-84
2022/05/19 01:51:38;;;;;;;22.63;21.63;;;18.60;39.10;;;;;;4974052;28;20414;-84
2022/05/19 01:54:25;;;;;;;23.53;22.37;;;18.60;39.10;;;;;;4974384;28;20429;-85
2022/05/19 01:57:10;;;;;;;22.93;21.83;;;18.60;39.10;;;;;;4974231;28;20445;-85
2022/05/19 02:00:04;;;;;;;24.43;23.13;;;18.50;40.10;;;;;;4974141;28;20422;-85
2022/05/19 02:02:50;;;;;;;24.93;23.73;;;18.40;40.70;;;;;;4976566;28;20484;-85
2022/05/19 02:05:18;;;;;;;23.60;22.60;;;18.40;42.30;;;;;;4990729;28;20418;-85
2022/05/19 02:07:48;;;;;;;24.63;23.47;;;18.40;42.30;;;;;;4974245;28;20469;-84
2022/05/19 02:10:20;;;;;;;23.77;22.77;;;18.40;42.90;;;;;;4975840;28;20414;-84
2022/05/19 02:12:47;;;;;;;24.37;23.37;;;18.40;43.70;;;;;;4975459;28;20433;-84
2022/05/19 02:15:17;;;;;;;24.60;23.30;;;18.40;43.00;;;;;;4990122;28;20958;-85
2022/05/19 02:17:44;;;;;;;24.30;23.30;;;18.40;43.90;;;;;;4990356;28;20426;-85
2022/05/19 02:20:13;;;;;;;23.47;22.57;;;18.30;43.90;;;;;;4991299;28;20426;-85
2022/05/19 02:22:44;;;;;;;23.70;22.57;;;18.20;43.00;;;;;;4991034;28;20423;-85
2022/05/19 02:25:28;;;;;;;24.03;23.03;;;18.20;42.40;;;;;;4975432;28;20806;-84
2022/05/19 02:28:14;;;;;;;23.80;22.80;;;18.20;42.70;;;;;;4989521;28;20597;-86
2022/05/19 02:30:41;;;;;;;24.10;23.10;;;18.20;43.70;;;;;;4974345;28;20426;-85
2022/05/19 02:33:08;;;;;;;23.70;22.60;;;18.20;42.70;;;;;;4989691;28;20410;-85
2022/05/19 02:35:34;;;;;;;24.53;23.33;;;18.10;42.80;;;;;;4989803;28;20782;-85
2022/05/19 02:38:00;;;;;;;23.40;22.40;;;18.10;43.00;;;;;;4989985;28;20440;-85
2022/05/19 02:40:30;;;;;;;23.90;22.90;;;18.10;43.50;;;;;;4974327;28;20418;-85
2022/05/19 02:42:56;;;;;;;23.83;22.83;;;18.00;43.50;;;;;;4989607;28;20426;-85
2022/05/19 02:45:23;;;;;;;24.33;22.70;;;18.00;44.10;;;;;;4988899;28;20436;-85
2022/05/19 02:47:49;;;;;;;23.57;22.57;;;18.00;44.30;;;;;;4989667;28;20473;-81
2022/05/19 02:50:16;;;;;;;23.93;22.83;;;17.90;43.60;;;;;;4989031;28;20467;-80
2022/05/19 02:52:42;;;;;;;23.57;22.57;;;18.00;43.80;;;;;;4989250;28;20422;-81
2022/05/19 02:55:09;;;;;;;24.60;23.50;;;17.90;44.00;;;;;;4988521;28;20410;-81
2022/05/19 02:57:35;;;;;;;23.60;22.60;;;17.90;43.80;;;;;;4974288;28;20181;-81
2022/05/19 03:00:01;;;;;;;24.23;23.23;;;17.90;43.30;;;;;;4990157;28;20812;-81
2022/05/19 03:02:26;;;;;;;24.13;23.10;;;17.90;43.80;;;;;;4987893;28;20418;-80
2022/05/19 03:04:52;;;;;;;24.80;23.67;;;17.90;42.80;;;;;;4988899;28;20878;-80
2022/05/19 03:07:18;;;;;;;24.07;23.00;;;17.80;42.40;;;;;;4988040;28;20293;-80
2022/05/19 03:09:45;;;;;;;24.40;23.20;;;17.80;43.20;;;;;;4988165;28;20277;-80
2022/05/19 03:12:12;;;;;;;26.30;25.07;;;17.70;42.40;;;;;;4989294;28;20542;-81
2022/05/19 03:14:38;;;;;;;24.60;23.50;;;17.70;42.60;;;;;;4988739;28;20422;-81
2022/05/19 03:17:08;;;;;;;24.93;23.83;;;17.70;43.30;;;;;;4971970;28;20472;-81
2022/05/19 03:19:35;;;;;;;26.30;25.20;;;17.70;43.40;;;;;;4988946;28;20182;-81
2022/05/19 03:22:02;;;;;;;25.43;24.17;;;17.60;43.40;;;;;;4988942;28;20429;-80
2022/05/19 03:24:28;;;;;;;26.60;25.07;;;17.70;43.00;;;;;;4987226;28;21005;-81
2022/05/19 03:26:54;;;;;;;26.87;25.73;;;17.60;42.70;;;;;;4973968;28;20947;-80
2022/05/19 03:29:19;;;;;;;26.10;24.80;;;17.60;42.80;;;;;;4988513;28;20513;-80
2022/05/19 03:31:46;;;;;;;26.20;24.83;;;17.60;44.00;;;;;;4989494;28;20208;-80
2022/05/19 03:34:11;;;;;;;26.20;25.10;;;17.70;44.00;;;;;;4990004;28;20266;-85
2022/05/19 03:36:37;;;;;;;26.20;25.10;;;17.70;43.00;;;;;;4988493;28;21014;-80
2022/05/19 03:39:03;;;;;;;26.00;24.97;;;17.60;39.00;;;;;;4989395;28;20538;-85
2022/05/19 03:41:31;;;;;;;26.77;25.57;;;17.60;40.50;;;;;;4988561;28;20218;-85
2022/05/19 03:44:02;;;;;;;26.20;25.00;;;17.60;39.90;;;;;;4990228;28;20186;-85
2022/05/19 03:46:28;;;;;;;27.60;26.10;;;17.60;40.70;;;;;;4988129;28;20430;-85
2022/05/19 03:48:54;;;;;;;27.30;25.70;;;17.60;42.40;;;;;;4986750;28;20973;-85
2022/05/19 03:51:24;;;;;;;26.20;25.10;;;17.60;43.40;;;;;;4987713;28;20179;-85
2022/05/19 03:53:50;;;;;;;26.00;24.80;;;17.60;42.50;;;;;;4986588;28;20659;-85
2022/05/19 03:56:21;;;;;;;24.87;23.87;;;17.50;41.30;;;;;;4986248;28;20445;-85
2022/05/19 03:58:48;;;;;;;27.63;25.97;;;17.50;40.70;;;;;;4987926;28;20930;-85
2022/05/19 04:01:14;;;;;;;27.53;26.13;;;17.50;41.70;;;;;;4986649;28;20448;-85
2022/05/19 04:03:39;;;;;;;26.03;25.00;;;17.50;42.20;;;;;;4986332;28;20414;-85
2022/05/19 04:06:05;;;;;;;25.97;24.87;;;17.50;42.20;;;;;;4986895;28;20421;-85
2022/05/19 04:08:31;;;;;;;26.93;25.73;;;17.50;42.00;;;;;;4988357;28;20299;-85
2022/05/19 04:10:57;;;;;;;25.70;24.40;;;17.50;41.90;;;;;;4989497;28;20193;-80
2022/05/19 04:13:23;;;;;;;25.77;24.57;;;17.40;42.10;;;;;;4986315;28;20183;-85
2022/05/19 04:15:48;;;;;;;25.17;23.87;;;17.50;42.40;;;;;;4986880;28;20455;-84
2022/05/19 04:18:14;;;;;;;25.37;24.17;;;17.40;42.00;;;;;;4987650;28;20218;-88
2022/05/19 04:20:44;;;;;;;25.47;24.37;;;17.40;42.50;;;;;;4972877;28;20529;-85
2022/05/19 04:23:13;;;;;;;25.13;24.03;;;17.40;41.80;;;;;;4986530;28;20790;-88
2022/05/19 04:25:39;;;;;;;24.47;23.40;;;17.50;42.50;;;;;;4970367;28;20442;-87
2022/05/19 04:28:05;;;;;;;26.37;25.00;;;17.50;41.90;;;;;;4985908;28;20560;-87
2022/05/19 04:30:31;;;;;;;26.33;25.23;;;17.40;41.10;;;;;;4988807;28;20518;-86
2022/05/19 04:32:57;;;;;;;25.10;24.00;;;17.50;40.60;;;;;;4987319;28;20187;-86
2022/05/19 04:35:23;;;;;;;25.30;24.20;;;17.50;40.20;;;;;;4987883;28;20445;-86
2022/05/19 04:37:49;;;;;;;25.07;23.97;;;17.50;40.10;;;;;;4986995;28;20187;-86
2022/05/19 04:40:16;;;;;;;25.00;24.00;;;17.60;40.30;;;;;;4985903;28;20426;-86
2022/05/19 04:42:42;;;;;;;24.80;23.70;;;17.60;39.30;;;;;;4986569;28;20191;-86
2022/05/19 04:45:10;;;;;;;25.47;24.37;;;17.60;40.50;;;;;;4986490;28;20428;-88
2022/05/19 04:47:36;;;;;;;25.77;24.67;;;17.70;39.00;;;;;;4968769;28;20234;-84
2022/05/19 04:50:01;;;;;;;25.53;24.17;;;17.70;37.90;;;;;;4987393;28;20449;-86
2022/05/19 04:52:27;;;;;;;23.40;22.30;;;17.80;37.70;;;;;;4985287;28;20189;-87
2022/05/19 04:54:56;;;;;;;25.07;23.90;;;17.80;37.70;;;;;;4983819;28;20183;-81
2022/05/19 04:57:21;;;;;;;24.50;23.50;;;17.90;37.20;;;;;;4987231;28;20197;-81
2022/05/19 04:59:47;;;;;;;22.23;21.13;;;17.90;37.60;;;;;;4985682;28;20422;-83
2022/05/19 05:02:12;;;;;;;24.50;23.40;;;17.90;36.80;;;;;;4987146;28;20183;-82
2022/05/19 05:04:38;;;;;;;25.60;24.40;;;17.90;37.50;;;;;;4986809;28;20548;-83
2022/05/19 05:07:05;;;;;;;26.33;25.13;;;18.00;37.20;;;;;;4987230;28;20209;-81
2022/05/19 05:09:30;;;;;;;25.27;24.07;;;18.00;37.10;;;;;;4985929;28;20213;-83
2022/05/19 05:11:56;;;;;;;26.00;24.90;;;18.10;37.40;;;;;;4986675;28;20504;-82
2022/05/19 05:14:22;;;;;;;25.13;24.13;;;18.10;37.20;;;;;;4985966;28;20193;-84
2022/05/19 05:16:53;;;;;;;26.77;25.57;;;18.10;36.00;;;;;;4987445;28;20197;-82
2022/05/19 05:19:22;;;;;;;27.23;25.83;;;18.20;35.10;;;;;;4971456;28;20183;-82
2022/05/19 05:21:50;;;;;;;26.80;25.60;;;18.30;35.90;;;;;;4970829;28;20858;-83
2022/05/19 05:24:17;;;;;;;25.97;24.67;;;18.50;35.50;;;;;;4970121;28;20430;-82
2022/05/19 05:26:42;;;;;;;26.27;25.17;;;18.50;34.80;;;;;;4986403;28;20818;-82
2022/05/19 05:29:08;;;;;;;25.97;24.77;;;18.50;34.50;;;;;;4986851;28;20430;-83
2022/05/19 05:31:34;;;;;;;25.20;24.20;;;18.50;34.50;;;;;;4987522;28;20181;-82
2022/05/19 05:34:00;;;;;;;25.80;24.50;;;18.50;34.50;;;;;;4975842;28;20182;-82
2022/05/19 05:36:26;;;;;;;26.17;24.50;;;18.40;35.00;;;;;;4991651;28;20425;-83
2022/05/19 05:38:51;;;;;;;25.73;24.60;;;18.40;35.40;;;;;;4990059;28;20264;-82
2022/05/19 05:41:17;;;;;;;25.97;24.83;;;18.40;35.20;;;;;;4990709;28;20194;-82
2022/05/19 05:43:43;;;;;;;24.73;23.70;;;18.40;35.20;;;;;;4974652;28;20583;-82
2022/05/19 05:46:11;;;;;;;24.87;23.83;;;18.40;36.70;;;;;;4989934;28;20290;-82
2022/05/19 05:48:38;;;;;;;22.70;21.33;;;18.40;35.30;;;;;;4990639;28;20297;-81
2022/05/19 05:51:08;;;;;;;25.37;24.20;;;18.50;35.90;;;;;;4989445;28;20421;-81
2022/05/19 05:53:35;;;;;;;24.70;23.70;;;18.50;36.90;;;;;;4989768;28;20425;-82
2022/05/19 05:56:03;;;;;;;25.40;24.40;;;18.60;34.50;;;;;;4989395;28;20454;-82
2022/05/19 05:58:29;;;;;;;25.57;24.23;;;18.70;34.80;;;;;;4991441;28;20458;-81
2022/05/19 06:00:56;;;;;;;25.03;24.00;;;18.70;36.10;;;;;;4989306;28;20426;-83
2022/05/19 06:03:22;;;;;;;25.13;23.83;;;18.70;35.30;;;;;;4989175;28;20500;-83
2022/05/19 06:05:48;;;;;;;25.73;24.50;;;18.80;35.50;;;;;;4985220;28;20521;-82
2022/05/19 06:08:14;;;;;;;24.77;23.60;;;18.80;36.10;;;;;;4989064;28;20457;-83
2022/05/19 06:10:40;;;;;;;25.80;24.70;;;18.90;35.50;;;;;;4989906;28;20476;-84
2022/05/19 06:13:06;;;;;;;26.70;25.50;;;18.90;34.40;;;;;;4989348;28;20206;-82
2022/05/19 06:15:32;;;;;;;25.50;24.20;;;18.90;35.80;;;;;;4990243;28;20948;-83
2022/05/19 06:17:58;;;;;;;26.80;25.60;;;19.00;36.30;;;;;;4983564;28;20418;-82
2022/05/19 06:20:25;;;;;;;26.20;25.00;;;19.00;36.40;;;;;;4961607;28;20702;-82
2022/05/19 06:22:52;;;;;;;27.20;25.63;;;19.10;36.80;;;;;;4960249;28;20454;-83
2022/05/19 06:25:21;;;;;;;25.20;24.20;;;19.10;36.00;;;;;;4976774;28;20995;-83
2022/05/19 06:27:49;;;;;;;26.30;24.93;;;19.10;36.10;;;;;;4972018;28;21031;-83
2022/05/19 06:30:15;;;;;;;24.50;23.40;;;19.20;36.50;;;;;;4975208;28;20461;-83
2022/05/19 06:32:42;;;;;;;24.80;23.70;;;19.20;36.10;;;;;;4958453;28;21028;-83
2022/05/19 06:35:09;;;;;;;24.83;23.77;;;19.20;37.20;;;;;;4973049;28;20488;-82
2022/05/19 06:37:35;;;;;;;25.53;24.37;;;19.30;35.40;;;;;;4973168;28;20489;-82
2022/05/19 06:40:00;;;;;;;24.90;23.90;;;19.40;35.60;;;;;;4975029;28;20504;-82
2022/05/19 06:42:26;;;;;;;27.40;26.03;;;19.50;35.50;;;;;;4972753;28;20728;-85
2022/05/19 06:44:52;;;;;;;26.93;25.63;;;19.50;35.70;;;;;;4974664;28;20607;-85
2022/05/19 06:47:18;;;;;;;25.20;24.20;;;19.50;38.00;;;;;;4956145;28;20618;-84
2022/05/19 06:49:46;;;;;;;26.33;24.80;;;19.60;36.90;;;;;;4974307;28;20617;-85
2022/05/19 06:52:19;;;;;;;25.80;24.67;;;19.60;37.00;;;;;;4973520;28;20658;-84
2022/05/19 06:54:49;;;;;;;24.90;23.70;;;19.70;36.90;;;;;;4976931;28;20449;-84
2022/05/19 06:57:15;;;;;;;24.73;23.63;;;19.80;36.40;;;;;;4972069;28;20513;-78
2022/05/19 06:59:42;;;;;;;24.23;23.13;;;19.90;36.30;;;;;;4974723;28;20489;-83
2022/05/19 07:02:09;;;;;;;24.63;23.10;;;20.00;36.50;;;;;;4975053;28;20657;-84
2022/05/19 07:04:36;;;;;;;26.30;25.07;;;20.00;36.40;;;;;;4973135;28;20481;-84
2022/05/19 07:07:04;;;;;;;24.90;23.80;;;20.30;35.20;;;;;;4975750;28;20482;-84
2022/05/19 07:09:31;;;;;;;24.43;23.23;;;20.50;34.30;;;;;;4976134;28;20450;-84
2022/05/19 07:11:57;;;;;;;23.23;22.20;;;20.60;33.40;;;;;;4959014;28;20449;-84
2022/05/19 07:14:22;;;;;;;25.43;24.23;;;20.70;33.20;;;;;;4973656;28;20457;-84
2022/05/19 07:16:49;;;;;;;25.33;24.23;;;20.80;32.80;;;;;;4976292;28;20454;-84
2022/05/19 07:22:04;;;;;;;24.90;23.80;;;21.00;31.90;;;;;;4962324;28;20517;-84
2022/05/19 07:24:31;;;;;;;27.03;25.60;;;21.10;32.10;;;;;;4978123;28;20864;-83
2022/05/19 07:26:58;;;;;;;25.83;24.50;;;21.00;32.60;;;;;;4976115;28;20532;-84
2022/05/19 07:29:25;;;;;;;25.80;24.60;;;21.00;32.20;;;;;;4979231;28;20458;-84
2022/05/19 07:31:51;;;;;;;23.60;22.30;;;21.00;32.50;;;;;;4978074;28;20540;-84
2022/05/19 07:34:20;;;;;;;25.80;24.50;;;21.20;30.90;;;;;;4973451;28;20450;-83
2022/05/19 07:36:49;;;;;;;24.77;23.67;;;21.20;32.20;;;;;;4974263;28;20470;-83
2022/05/19 07:39:15;;;;;;;24.37;23.30;;;21.30;31.90;;;;;;4974858;28;20453;-84
2022/05/19 07:41:41;;;;;;;23.07;22.13;;;21.50;32.40;;;;;;4974100;28;20485;-84
2022/05/19 07:44:08;;;;;;;25.47;24.13;;;21.60;31.90;;;;;;4968030;28;20229;-84
2022/05/19 07:46:35;;;;;;;25.43;23.87;;;21.60;31.50;;;;;;4950216;28;20446;-84
2022/05/19 07:49:01;;;;;;;24.90;23.80;;;21.60;32.30;;;;;;4973604;28;20461;-84
2022/05/19 07:51:31;;;;;;;25.20;24.10;;;21.60;32.30;;;;;;4974307;28;20445;-84
2022/05/19 07:53:57;;;;;;;25.03;23.60;;;21.70;31.70;;;;;;4958085;28;20454;-84
2022/05/19 07:56:24;;;;;;;23.20;22.20;;;21.80;31.50;;;;;;4973031;28;20897;-84
2022/05/19 07:58:50;;;;;;;24.17;22.87;;;21.90;32.20;;;;;;4960831;28;20973;-84
2022/05/19 08:01:16;;;;;;;24.97;23.80;;;21.90;32.40;;;;;;4975595;28;20452;-84
2022/05/19 08:03:43;;;;;;;24.97;23.67;;;21.90;33.00;;;;;;4974056;28;20528;-84
2022/05/19 08:06:10;;;;;;;24.67;23.23;;;22.00;32.80;;;;;;4967189;28;20964;-84
2022/05/19 08:08:38;;;;;;;24.80;23.40;;;22.20;31.80;;;;;;4957807;28;20464;-84
2022/05/19 08:11:04;;;;;;;24.17;23.17;;;22.20;32.00;;;;;;4973243;28;20829;-84
2022/05/19 08:16:14;;;;;;;24.10;23.00;;;22.30;31.90;;;;;;4960149;28;20253;-84
2022/05/19 08:18:40;;;;;;;24.93;23.60;;;22.30;31.90;;;;;;4974056;28;20438;-84
2022/05/19 08:21:10;;;;;;;24.40;23.20;;;22.40;32.90;;;;;;4975050;28;20511;-84
2022/05/19 08:23:39;;;;;;;24.77;23.60;;;22.60;31.90;;;;;;4974174;28;20487;-84
2022/05/19 08:26:08;;;;;;;23.87;22.87;;;22.60;32.20;;;;;;4972108;28;20497;-84
2022/05/19 08:28:35;;;;;;;24.20;22.93;;;22.60;31.80;;;;;;4973855;28;20480;-84
2022/05/19 08:31:03;;;;;;;23.73;22.73;;;22.80;32.30;;;;;;4977369;28;20466;-84
2022/05/19 08:33:30;;;;;;;24.30;23.20;;;22.80;31.40;;;;;;4974898;28;20792;-84
2022/05/19 08:35:56;;;;;;;25.13;23.87;;;22.90;32.10;;;;;;4974902;28;20831;-84
2022/05/19 08:38:22;;;;;;;25.13;23.73;;;23.00;30.90;;;;;;4974923;28;20461;-84
2022/05/19 08:40:50;;;;;;;24.77;23.57;;;23.10;31.00;;;;;;4973767;28;21046;-84
2022/05/19 08:43:19;;;;;;;24.20;23.20;;;23.20;30.00;;;;;;4957106;28;20493;-83
2022/05/19 08:45:53;;;;;;;25.90;24.73;;;23.20;31.40;;;;;;4973782;28;20869;-84
2022/05/19 08:48:22;;;;;;;24.60;23.60;;;23.20;31.90;;;;;;4973888;28;20993;-84
2022/05/19 08:51:07;;;;;;;25.20;24.10;;;23.20;30.20;;;;;;4958544;28;20457;-84
2022/05/19 08:53:38;;;;;;;23.90;22.90;;;23.40;30.00;;;;;;4971758;28;20967;-84
2022/05/19 08:56:31;;;;;;;25.30;24.20;;;23.50;30.00;;;;;;4972765;28;20513;-84
2022/05/19 08:59:11;;;;;;;24.23;23.03;;;23.50;30.70;;;;;;4971574;28;20473;-83
2022/05/19 09:01:59;;;;;;;25.37;24.30;;;23.60;30.30;;;;;;4963489;28;20520;-84
2022/05/19 09:04:44;;;;;;;23.50;22.40;;;23.60;30.40;;;;;;4962203;28;20462;-84
2022/05/19 09:10:28;;;;;;;25.10;23.90;;;23.80;29.40;;;;;;4964644;28;20496;-84
2022/05/19 09:13:08;;;;;;;24.90;23.73;;;23.80;30.00;;;;;;4979647;28;20450;-84
2022/05/19 09:15:35;;;;;;;25.27;23.87;;;23.90;30.20;;;;;;4961937;28;20879;-84
2022/05/19 09:18:01;;;;;;;24.77;23.70;;;23.90;30.10;;;;;;4976220;28;20450;-83
2022/05/19 09:20:48;;;;;;;25.57;24.17;;;24.00;29.90;;;;;;4963513;28;20452;-84
2022/05/19 09:23:15;;;;;;;24.10;23.00;;;24.10;29.70;;;;;;4943194;29;20458;-84
2022/05/19 09:25:46;;;;;;;24.10;23.00;;;24.30;28.60;;;;;;4973187;28;20852;-83
2022/05/19 09:28:13;;;;;;;24.60;23.50;;;24.40;28.80;;;;;;4978940;28;20469;-80
2022/05/19 09:30:54;;;;;;;25.10;24.00;;;24.50;28.80;;;;;;4979582;28;20454;-83
2022/05/19 09:33:35;;;;;;;24.63;23.43;;;24.60;28.10;;;;;;4988478;28;20433;-83
2022/05/19 09:36:08;;;;;;;25.10;23.77;;;24.90;27.20;;;;;;4990994;28;20881;-83
2022/05/19 09:38:38;;;;;;;24.37;23.17;;;24.90;28.30;;;;;;4991706;28;20444;-83
2022/05/19 09:41:39;;;;;;;24.50;23.40;;;24.90;28.70;;;;;;4992236;28;20818;-82
2022/05/19 09:44:12;;;;;;;25.20;24.10;;;25.00;28.60;;;;;;4951082;28;20430;-83
2022/05/19 09:46:47;;;;;;;24.23;23.13;;;25.30;28.20;;;;;;4991784;28;20414;-83
2022/05/19 09:49:30;;;;;;;23.57;22.50;;;25.30;27.50;;;;;;4991752;28;20429;-82
2022/05/19 09:52:01;;;;;;;23.90;22.70;;;25.30;27.30;;;;;;4976849;28;20477;-83
2022/05/19 09:54:31;;;;;;;24.73;23.53;;;25.40;27.20;;;;;;4991064;28;20441;-82
2022/05/19 09:57:05;;;;;;;23.30;22.30;;;25.50;27.90;;;;;;4991744;28;20492;-85
2022/05/19 09:59:45;;;;;;;24.40;22.93;;;25.60;26.80;;;;;;4991880;28;20832;-85
2022/05/19 10:02:44;;;;;;;23.47;22.37;;;25.90;26.20;;;;;;4992028;28;20478;-85
2022/05/19 10:05:32;;;;;;;25.00;23.90;;;26.00;25.60;;;;;;4975283;28;20433;-86
2022/05/19 10:08:05;;;;;;;22.87;21.67;;;26.00;26.40;;;;;;4990900;28;20508;-88
2022/05/19 10:10:35;;;;;;;31.13;29.30;;;26.10;27.10;;;;;;4995253;28;20422;-90
2022/05/19 10:13:07;;;;;;;24.50;23.20;;;26.30;26.10;;;;;;4992172;28;20426;-89
2022/05/19 10:16:00;;;;;;;23.07;21.97;;;26.40;26.00;;;;;;4988201;28;20453;-88
2022/05/19 10:18:38;;;;;;;23.47;22.47;;;26.40;25.80;;;;;;4956276;28;20431;-89
2022/05/19 10:21:03;;;;;;;23.90;22.50;;;26.30;26.60;;;;;;4991839;28;20803;-89
2022/05/19 10:24:02;;;;;;;23.70;22.60;;;26.40;26.30;;;;;;4975497;28;20418;-89
2022/05/19 10:26:41;;;;;;;22.97;22.03;;;26.50;26.50;;;;;;4955834;28;20294;-88
2022/05/19 10:32:59;;;;;;;23.37;22.37;;;26.40;26.30;;;;;;4975703;28;20813;-89
2022/05/19 10:36:10;;;;;;;22.60;21.60;;;26.50;26.40;;;;;;4965916;28;20958;-89
2022/05/19 10:38:45;;;;;;;23.60;22.40;;;26.60;26.40;;;;;;4897214;29;20465;-89
2022/05/19 10:41:35;;;;;;;24.30;22.97;;;26.60;26.20;;;;;;4896678;29;20426;-85
2022/05/19 10:44:21;;;;;;;23.17;22.07;;;26.60;26.40;;;;;;4954217;28;20529;-87
2022/05/19 10:47:27;;;;;;;22.77;21.40;;;26.60;26.50;;;;;;4959763;28;20939;-86
2022/05/19 10:50:03;;;;;;;25.00;23.80;;;26.70;25.80;;;;;;4974228;28;20448;-80
2022/05/19 10:52:54;;;;;;;24.17;22.97;;;26.80;25.50;;;;;;4988750;28;20421;-80
2022/05/19 10:55:57;;;;;;;24.17;23.07;;;26.90;25.70;;;;;;4972899;28;20429;-80
2022/05/19 10:58:28;;;;;;;23.37;22.37;;;26.90;26.00;;;;;;4973257;28;20426;-80
2022/05/19 11:01:03;;;;;;;23.60;22.40;;;27.00;25.70;;;;;;4973538;28;20488;-80
2022/05/19 11:03:48;;;;;;;21.83;20.83;;;27.10;25.40;;;;;;4973633;28;20460;-80
2022/05/19 11:06:48;;;;;;;22.60;21.37;;;27.20;26.00;;;;;;4973197;28;20430;-80
2022/05/19 11:09:41;;;;;;;23.97;22.77;;;27.40;25.70;;;;;;4973302;28;20445;-80
2022/05/19 11:12:44;;;;;;;24.27;23.17;;;27.50;25.10;;;;;;4973468;28;20418;-80
2022/05/19 11:15:16;;;;;;;22.63;21.53;;;27.60;25.10;;;;;;4972866;28;20421;-80
2022/05/19 11:18:04;;;;;;;21.80;20.80;;;27.60;24.20;;;;;;4973415;28;20449;-80
2022/05/19 11:20:43;;;;;;;22.43;21.40;;;27.50;24.20;;;;;;4973075;28;20432;-80
2022/05/19 11:23:35;;;;;;;21.90;20.53;;;27.50;24.40;;;;;;4973089;28;20449;-80
2022/05/19 11:26:25;;;;;;;22.40;21.30;;;27.50;25.00;;;;;;4972421;28;20467;-80
2022/05/19 11:29:08;;;;;;;20.87;20.07;;;27.50;24.90;;;;;;4972889;28;20537;-81
2022/05/19 11:32:03;;;;;;;24.00;22.70;;;27.50;24.30;;;;;;4972614;28;20476;-81
2022/05/19 11:34:32;;;;;;;23.83;22.63;;;27.50;24.40;;;;;;4972649;28;20492;-81
2022/05/19 11:37:13;;;;;;;23.87;22.57;;;27.70;24.20;;;;;;4973323;28;20521;-81
2022/05/19 11:40:14;;;;;;;22.53;21.30;;;27.70;24.10;;;;;;4972860;28;20438;-81
2022/05/19 11:43:14;;;;;;;23.17;22.10;;;27.80;23.60;;;;;;4984581;28;20496;-81
2022/05/19 11:45:54;;;;;;;23.30;22.20;;;27.80;23.90;;;;;;4972467;28;20505;-81
2022/05/19 11:57:21;;;;;;;23.80;22.60;;;27.90;24.10;;;;;;4974266;28;20465;-81
2022/05/19 11:59:48;;;;;;;23.33;22.23;;;28.10;23.70;;;;;;4988946;28;20429;-81
2022/05/19 12:02:17;;;;;;;23.97;22.87;;;28.10;24.30;;;;;;4988974;28;20473;-81
2022/05/19 12:04:44;;;;;;;24.20;23.10;;;28.20;23.50;;;;;;4988629;28;20458;-81
2022/05/19 12:07:20;;;;;;;25.00;23.57;;;28.30;23.10;;;;;;4988892;28;20464;-81
2022/05/19 12:09:58;;;;;;;24.40;23.17;;;28.30;24.00;;;;;;4988932;28;20491;-81
2022/05/19 12:12:29;;;;;;;24.50;23.23;;;28.40;23.80;;;;;;4988592;28;20418;-81
2022/05/19 12:15:16;;;;;;;24.80;23.60;;;28.40;23.20;;;;;;4988186;28;20414;-81
2022/05/19 12:17:54;;;;;;;23.70;22.60;;;28.40;23.80;;;;;;4972398;28;20436;-81
2022/05/19 12:20:38;;;;;;;24.37;23.20;;;28.40;23.80;;;;;;4972436;28;20930;-81
2022/05/19 12:23:19;;;;;;;23.80;22.60;;;28.20;23.10;;;;;;4972130;28;20437;-81
2022/05/19 12:25:48;;;;;;;23.37;22.27;;;28.20;24.00;;;;;;4987628;28;20448;-81
2022/05/19 12:28:14;;;;;;;23.47;22.47;;;28.00;23.50;;;;;;4988428;28;20462;-81
2022/05/19 12:34:00;;;;;;;23.37;22.37;;;27.80;24.50;;;;;;4973881;28;20245;-81
2022/05/19 12:36:32;;;;;;;22.73;21.50;;;28.00;23.90;;;;;;4988201;28;20422;-81
2022/05/19 12:39:28;;;;;;;23.33;22.33;;;28.20;24.00;;;;;;4972299;28;20806;-81
2022/05/19 12:41:58;;;;;;;23.57;22.30;;;28.40;23.60;;;;;;4941979;28;20419;-81
2022/05/19 12:44:35;;;;;;;22.50;21.50;;;28.60;23.30;;;;;;4994588;28;20424;-81
2022/05/19 12:47:08;;;;;;;24.10;22.80;;;28.50;22.80;;;;;;4978728;28;20457;-81
2022/05/19 12:49:36;;;;;;;24.60;23.10;;;28.40;23.10;;;;;;4994980;28;20596;-81
2022/05/19 12:52:09;;;;;;;23.20;22.20;;;28.30;23.20;;;;;;4994771;28;20785;-81
2022/05/19 12:54:36;;;;;;;23.20;22.20;;;28.40;23.30;;;;;;4978246;28;20512;-81
2022/05/19 12:57:24;;;;;;;24.60;23.23;;;28.40;23.70;;;;;;4994916;28;20472;-81
2022/05/19 12:59:54;;;;;;;23.80;22.70;;;28.40;24.10;;;;;;4978798;28;20422;-81
2022/05/19 13:02:25;;;;;;;23.87;22.70;;;28.40;23.90;;;;;;4994595;28;20414;-81
2022/05/19 13:05:01;;;;;;;23.40;22.20;;;28.60;22.60;;;;;;4978278;28;20418;-81
2022/05/19 13:07:38;;;;;;;24.00;22.90;;;28.70;22.80;;;;;;4994656;28;20469;-82
2022/05/19 13:10:34;;;;;;;22.33;21.43;;;28.70;22.40;;;;;;4995074;28;20456;-81
2022/05/19 13:13:23;;;;;;;24.33;23.23;;;28.60;23.60;;;;;;4994715;28;20425;-81
2022/05/19 13:16:04;;;;;;;23.23;22.10;;;28.80;23.00;;;;;;4978166;28;20914;-81
2022/05/19 13:18:37;;;;;;;22.70;21.80;;;28.80;23.10;;;;;;4994873;28;20479;-81